KHCD

Details ICAO KHCD
Name HUTCHINSON MUNI BUTLER FLD
Region United States
Timezone America/Chicago (UTC-6.0)
Plans Departing 0
Arriving 0
Stats Elevation 1,060 ft / 323 m (AMSL)
Location 44.859878° -94.382507°
Runways 1
Magnetic Variation 1.133° E
Sunrise 2017-12-15 13:50:01 UTC / 2017-12-15 07:50:01 Local
Sunset 2017-12-15 22:38:23 UTC / 2017-12-15 16:38:23 Local
Advertisement - Login to hide

Runways

ID Width Length Bearing (true) Bearing (mag) Surface Threshold Offset Overrun Length
15 75 ft / 23 m 4,000 ft / 1,219 m 152.54° 151.41° Asphalt 0 ft / 0 m 0 ft / 0 m
33 75 ft / 23 m 4,000 ft / 1,219 m 332.55° 331.42° Asphalt 0 ft / 0 m 0 ft / 0 m

Map

Weather


0- 5 10 15 20 25 30 35+ Temperature / ° C

Clouds and Precipitation
Forecast for 2017-12-15 18:00 UTC. Updated an hour ago

Ground ~20,000 ft ~40,000 ft Winds

METAR

KHCD 151355Z AUTO 00000KT 10SM OVC015 M03/M04 A2988 RMK AO2 T10331045

TAF

Not found

Frequencies

Recorded 118.52 MHz AWOS 3
Unicom 122.80 MHz CTAF/UNICOM
Warning: Do not use this data for real-world aviation or navigation. No guarantee of current accuracy is given.